BBRO2: Mountain Fork, Broken Bow Rereg

Data processed at Fri Jan 05 2018 23:33


All information presented herein is the property of the government of the United States of America and may be revised or deleted at any time without prior notice.
Dissemination of this information without the expressed written consent of the Public Affairs Office, Tulsa District U.S. Army Corps of Engineers is strictly prohibited.
These data are gathered electronically and, as presented, have not undergone any form of quality control. These data are not guaranteed to be valid or correct.
Go to home page.
Go to station list.

Upstream stations:

Downstream station:
Previous Day
Next Day
Current Day
    
SHEF ID:       BBRO2     Mountain Fork Re-regulation Dam
STATION TYPE:  

                STAGE  RIV-FLOW   VOLTAGE  BAT-LOAD
                   ft       cfs      volt      volt
              Ccp-Rev   Ccp-Rev   Ccp-Rev   Ccp-Rev
(US/Central)
01/03 00:00    389.76       487     13.50     13.30
01/03 01:00    389.60       458     13.50     13.24
01/03 02:00    389.46       433     13.50     13.24
01/03 03:00    389.33       410     13.50     13.24
01/03 04:00    389.22       390     13.50     13.24
01/03 05:00    389.12       373     13.50     13.24
01/03 06:00    389.02       355     13.50     13.24
01/03 07:00    388.93       339     13.50     13.24
01/03 08:00    389.34       412     13.50     13.24
01/03 09:00    392.28      1429     13.50     13.24
01/03 10:00    393.92      2264     13.50     13.24
01/03 11:00    394.03      2326     13.60     13.24
01/03 12:00    393.43      1982     13.60     13.30
01/03 13:00    392.89      1688     13.50     12.95
01/03 14:00    392.40      1480     13.60     13.30
01/03 15:00      ----      ----      ----      ----
01/03 16:00    391.56      1141     13.60     13.30
01/03 17:00    391.20      1002     13.60     13.30
01/03 18:00    391.63      1168     13.60     13.30
01/03 19:00    393.93      2270     13.60     13.30
01/03 20:00    395.74      3261     13.50     13.30
01/03 21:00    396.06      3432     13.50     13.30
01/03 22:00    395.29      3011     13.50     13.30
01/03 23:00    394.56      2612     13.50     13.30